Kyoto Maru — JD3149 — position and weather

sailwx.info

Track history (hours):
 
Tides and Currents Weather Stations Pressure Air Temp Water Temp Dewpoint Dewpoint Depression Visibility Wind Speed Wind Dir Waves Ship Positions

Kyoto Maru

Last reported at 2014-Sep-15 01:33 UTC. Time now 2014-Sep-15 02:02 UTC.
Position N 35°27' E 139°38'.

Length 34 m; draft 3.8 m.

Type: Tug. MMSI: 431002219.

Date/timePositionNaut miles runAvg speedWind from/ knotsBaromVisibWave heightAir tempDewpointWater temp
2014-Sep-15 01:33N 35°27' E 139°38'0 0.0
2014-Sep-15 00:33N 35°27' E 139°38'0 0.0
2014-Sep-14 23:33N 35°27' E 139°38'0 0.0
2014-Sep-14 22:33N 35°27' E 139°38'0 0.0
2014-Sep-14 21:33N 35°27' E 139°38'0 0.0
2014-Sep-14 20:33N 35°27' E 139°38'0 0.0
2014-Sep-14 19:33N 35°27' E 139°38'0 0.0
2014-Sep-14 18:33N 35°27' E 139°38'0 0.0
2014-Sep-14 17:33N 35°27' E 139°38'0 0.0
2014-Sep-14 16:33N 35°27' E 139°38'0 0.0
2014-Sep-14 15:33N 35°27' E 139°38'0 0.0
2014-Sep-14 14:33N 35°27' E 139°38'0 0.0
2014-Sep-14 13:33N 35°27' E 139°38'0 0.0
2014-Sep-14 12:33N 35°27' E 139°38'0 0.0
2014-Sep-14 11:33N 35°27' E 139°38'0 0.0
2014-Sep-14 10:33N 35°27' E 139°38'0 0.0
2014-Sep-14 09:33N 35°27' E 139°38'0 0.0
2014-Sep-14 08:33N 35°27' E 139°38'0 0.0
2014-Sep-14 07:33N 35°27' E 139°38'0 0.0
2014-Sep-14 06:33N 35°27' E 139°38'0 0.0
2014-Sep-14 05:33N 35°27' E 139°38'0 0.0
2014-Sep-14 04:33N 35°27' E 139°38'0 0.0
2014-Sep-14 03:33N 35°27' E 139°38'0 0.0
2014-Sep-14 02:33N 35°27' E 139°38'0 0.0
2014-Sep-14 01:33N 35°27' E 139°38'4 1.1
2014-Sep-13 21:33N 35°27' E 139°44'2 1.6
2014-Sep-13 20:34N 35°28' E 139°42'0 0.1
2014-Sep-13 19:33N 35°28' E 139°42'0 0.0
2014-Sep-13 18:33N 35°28' E 139°42'0 0.0
2014-Sep-13 17:33N 35°28' E 139°42'0 0.3
2014-Sep-13 16:34N 35°27' E 139°42'2 1.7
2014-Sep-13 15:33N 35°26' E 139°41'1 1.2
2014-Sep-13 14:33N 35°28' E 139°40'0 0.0
2014-Sep-13 13:33N 35°28' E 139°40'0 0.0
2014-Sep-13 12:33N 35°28' E 139°40'0 0.3
2014-Sep-13 11:34N 35°27' E 139°41'4 3.7
2014-Sep-13 10:33N 35°30' E 139°44'1 1.1
2014-Sep-13 09:34N 35°29' E 139°43'2 1.9
2014-Sep-13 08:33N 35°27' E 139°42'1 1.0
2014-Sep-13 07:34N 35°27' E 139°41'2 1.5
2014-Sep-13 06:33N 35°27' E 139°39'0 0.0
2014-Sep-13 05:33N 35°27' E 139°39'0 0.0
2014-Sep-13 04:33N 35°27' E 139°39'0 0.0
2014-Sep-13 03:33N 35°27' E 139°39'0 0.0
2014-Sep-13 02:33N 35°27' E 139°39'0 0.0
2014-Sep-13 01:33N 35°27' E 139°39'0 0.0
2014-Sep-13 00:33N 35°27' E 139°39'0 0.0
2014-Sep-12 23:33N 35°27' E 139°39'0 0.0
2014-Sep-12 22:33N 35°27' E 139°39'1 0.8
2014-Sep-12 21:34N 35°28' E 139°39'0 0.2
2014-Sep-12 20:33N 35°27' E 139°38'0 0.0
2014-Sep-12 19:33N 35°27' E 139°38'0 0.0
2014-Sep-12 18:33N 35°27' E 139°38'0 0.0
2014-Sep-12 17:33N 35°27' E 139°38'0 0.0
2014-Sep-12 16:33N 35°27' E 139°38'0 0.0
2014-Sep-12 15:33N 35°27' E 139°38'0 0.0
2014-Sep-12 14:33N 35°27' E 139°38'0 0.0
2014-Sep-12 13:33N 35°27' E 139°38'0 0.0
2014-Sep-12 12:33N 35°27' E 139°38'0 0.0
2014-Sep-12 11:33N 35°27' E 139°38'0 0.0
2014-Sep-12 10:33N 35°27' E 139°38'0 0.0
2014-Sep-12 09:33N 35°27' E 139°38'0 0.0
2014-Sep-12 08:33N 35°27' E 139°38'0 0.0
2014-Sep-12 07:33N 35°27' E 139°38'2 1.6
2014-Sep-12 06:33N 35°28' E 139°40'0 0.0
2014-Sep-12 05:33N 35°28' E 139°40'0 0.0
2014-Sep-12 04:33N 35°28' E 139°40'0 0.0
2014-Sep-12 03:33N 35°28' E 139°40'0 0.0
2014-Sep-12 02:33N 35°28' E 139°40'0 0.0
2014-Sep-12 01:33N 35°28' E 139°40'0 0.0
2014-Sep-12 00:33N 35°28' E 139°40'1 1.2
2014-Sep-11 23:33N 35°28' E 139°42'1 1.1
2014-Sep-11 22:33N 35°27' E 139°43'2 2.3
2014-Sep-11 21:33N 35°27' E 139°40'1 1.1
2014-Sep-11 20:33N 35°27' E 139°38'0 0.0
2014-Sep-11 19:33N 35°27' E 139°38'0 0.0
2014-Sep-11 18:33N 35°27' E 139°38'0 0.0
2014-Sep-11 17:33N 35°27' E 139°38'0 0.0
2014-Sep-11 16:33N 35°27' E 139°38'0 0.0
2014-Sep-11 15:33N 35°27' E 139°38'0 0.0
2014-Sep-11 14:33N 35°27' E 139°38'0 0.0
2014-Sep-11 13:33N 35°27' E 139°38'0 0.0
2014-Sep-11 12:33N 35°27' E 139°38'0 0.0
2014-Sep-11 11:33N 35°27' E 139°38'0 0.0
2014-Sep-11 10:33N 35°27' E 139°38'0 0.0
2014-Sep-11 09:33N 35°27' E 139°38'0 0.0
2014-Sep-11 08:33N 35°27' E 139°38'0 0.0
2014-Sep-11 07:33N 35°27' E 139°38'0 0.0
2014-Sep-11 06:33N 35°27' E 139°38'0 0.0
2014-Sep-11 05:33N 35°27' E 139°38'0 0.0
2014-Sep-11 04:33N 35°27' E 139°38'0 0.0
2014-Sep-11 03:33N 35°27' E 139°38'0 0.0
2014-Sep-11 02:33N 35°27' E 139°38'0 0.0
2014-Sep-11 01:33N 35°27' E 139°38'0 0.0
2014-Sep-11 00:33N 35°27' E 139°38'3 2.7
2014-Sep-10 23:33N 35°27' E 139°42'3 2.7
2014-Sep-10 22:33N 35°24' E 139°41'3 2.5
2014-Sep-10 21:33N 35°26' E 139°42'3 2.7
2014-Sep-10 20:33N 35°27' E 139°38'0 0.0
2014-Sep-10 19:33N 35°27' E 139°38'0 0.0
2014-Sep-10 18:33N 35°27' E 139°38'0 0.0
2014-Sep-10 17:33N 35°27' E 139°38'0 0.0
2014-Sep-10 16:33N 35°27' E 139°38'0 0.0
2014-Sep-10 15:33N 35°27' E 139°38'0 0.0
2014-Sep-10 14:33N 35°27' E 139°38'0 0.0
2014-Sep-10 13:33N 35°27' E 139°38'0 0.0
2014-Sep-10 12:33N 35°27' E 139°38'2 1.6
2014-Sep-10 11:34N 35°27' E 139°40'3 3.2
2014-Sep-10 10:33N 35°26' E 139°44'5 4.8
2014-Sep-10 09:33N 35°27' E 139°38'0 0.0
2014-Sep-10 08:33N 35°27' E 139°38'0 0.0
2014-Sep-10 07:33N 35°27' E 139°38'0 0.0
2014-Sep-10 06:33N 35°27' E 139°38'0 0.0
2014-Sep-10 05:33N 35°27' E 139°38'3 3.2
2014-Sep-10 04:34N 35°26' E 139°42'3 3.4
2014-Sep-10 03:33N 35°24' E 139°38'0 0.0
2014-Sep-10 02:33N 35°24' E 139°38'3 2.8
2014-Sep-10 01:33N 35°23' E 139°41'4 4.4
2014-Sep-10 00:33N 35°27' E 139°40'2 1.6
2014-Sep-09 23:33N 35°27' E 139°38'0 0.0
2014-Sep-09 22:33N 35°27' E 139°38'0 0.0
2014-Sep-09 21:33N 35°27' E 139°38'0 0.0
2014-Sep-09 20:33N 35°27' E 139°38'0 0.0
2014-Sep-09 19:33N 35°27' E 139°38'0 0.0
2014-Sep-09 18:33N 35°27' E 139°38'0 0.0
2014-Sep-09 17:33N 35°27' E 139°38'0 0.0
2014-Sep-09 16:33N 35°27' E 139°38'0 0.0
2014-Sep-09 15:33N 35°27' E 139°38'0 0.0
2014-Sep-09 14:33N 35°27' E 139°38'0 0.0
2014-Sep-09 13:33N 35°27' E 139°38'0 0.0
2014-Sep-09 12:33N 35°27' E 139°38'0 0.0
2014-Sep-09 11:33N 35°27' E 139°38'0 0.0
2014-Sep-09 10:33N 35°27' E 139°38'0 0.0
2014-Sep-09 09:33N 35°27' E 139°38'0 0.0
2014-Sep-09 08:33N 35°27' E 139°38'4 4.2
2014-Sep-09 07:34N 35°26' E 139°43'2 2.0
2014-Sep-09 06:33N 35°27' E 139°41'1 0.8
2014-Sep-09 05:33N 35°28' E 139°41'0 0.0
2014-Sep-09 04:33N 35°28' E 139°41'0 0.0
2014-Sep-09 03:33N 35°28' E 139°41'0 0.0
2014-Sep-09 02:33N 35°28' E 139°41'0 0.0
2014-Sep-09 01:33N 35°28' E 139°41'1 0.5
2014-Sep-09 00:33N 35°27' E 139°41'2 1.5
2014-Sep-08 23:33N 35°28' E 139°39'1 0.7
2014-Sep-08 22:33N 35°27' E 139°38'0 0.0
2014-Sep-08 21:33N 35°27' E 139°38'0 0.0
2014-Sep-08 20:33N 35°27' E 139°38'0 0.0
2014-Sep-08 19:33N 35°27' E 139°38'0 0.0
2014-Sep-08 18:33N 35°27' E 139°38'0 0.0
2014-Sep-08 17:33N 35°27' E 139°38'0 0.0
2014-Sep-08 16:33N 35°27' E 139°38'0 0.0
2014-Sep-08 15:33N 35°27' E 139°38'0 0.0
2014-Sep-08 14:33N 35°27' E 139°38'0 0.0
2014-Sep-08 13:33N 35°27' E 139°38'0 0.0
2014-Sep-08 12:33N 35°27' E 139°38'0 0.0
2014-Sep-08 11:33N 35°27' E 139°38'0 0.0
2014-Sep-08 10:33N 35°27' E 139°38'0 0.0
2014-Sep-08 09:33N 35°27' E 139°38'0 0.0
2014-Sep-08 08:33N 35°27' E 139°38'0 0.0
2014-Sep-08 07:33N 35°27' E 139°38'3 3.5
2014-Sep-08 06:33N 35°24' E 139°40'3 3.0
2014-Sep-08 05:33N 35°27' E 139°40'0 0.1
2014-Sep-08 04:33N 35°27' E 139°39'0 0.0
2014-Sep-08 03:33N 35°27' E 139°39'0 0.0
2014-Sep-08 02:33N 35°27' E 139°39'4 4.1
2014-Sep-08 01:33N 35°30' E 139°43'3 2.5
2014-Sep-08 00:33N 35°31' E 139°46'3 3.3
2014-Sep-07 23:33N 35°28' E 139°46'1 1.1
2014-Sep-07 22:34N 35°28' E 139°45'2 1.9
2014-Sep-07 21:33N 35°30' E 139°45'6 6.0
2014-Sep-07 20:33N 35°27' E 139°38'0 0.1
2014-Sep-07 19:33N 35°27' E 139°39'0 0.0
2014-Sep-07 18:33N 35°27' E 139°39'0 0.0
2014-Sep-07 17:33N 35°27' E 139°39'0 0.0
2014-Sep-07 16:33N 35°27' E 139°39'0 0.0
2014-Sep-07 15:33N 35°27' E 139°39'0 0.0
2014-Sep-07 14:33N 35°27' E 139°39'0 0.0
2014-Sep-07 13:33N 35°27' E 139°39'0 0.0
2014-Sep-07 12:33N 35°27' E 139°39'0 0.0
2014-Sep-07 11:33N 35°27' E 139°39'0 0.0
2014-Sep-07 10:33N 35°27' E 139°39'0 0.0
2014-Sep-07 09:33N 35°27' E 139°39'0 0.0
2014-Sep-07 08:33N 35°27' E 139°39'0 0.0
2014-Sep-07 07:33N 35°27' E 139°39'0 0.0
2014-Sep-07 06:33N 35°27' E 139°39'0 0.0
2014-Sep-07 05:33N 35°27' E 139°39'0 0.0
2014-Sep-07 04:33N 35°27' E 139°39'0 0.0
2014-Sep-07 03:33N 35°27' E 139°39'0 0.0
2014-Sep-07 02:33N 35°27' E 139°39'0 0.0
2014-Sep-07 01:33N 35°27' E 139°39'0 0.0
2014-Sep-07 00:33N 35°27' E 139°39'2 2.3
2014-Sep-06 23:33N 35°26' E 139°41'1 1.1
2014-Sep-06 22:33N 35°26' E 139°42'3 3.5
2014-Sep-06 21:33N 35°27' E 139°38'0 0.1
2014-Sep-06 20:33N 35°27' E 139°38'0 0.0
2014-Sep-06 19:33N 35°27' E 139°38'0 0.0
2014-Sep-06 18:33N 35°27' E 139°38'0 0.0
2014-Sep-06 17:33N 35°27' E 139°38'0 0.0
2014-Sep-06 16:33N 35°27' E 139°38'0 0.0
2014-Sep-06 15:33N 35°27' E 139°38'0 0.0
2014-Sep-06 14:33N 35°27' E 139°38'0 0.0
2014-Sep-06 13:33N 35°27' E 139°38'0 0.0
2014-Sep-06 12:33N 35°27' E 139°38'0 0.0
2014-Sep-06 11:33N 35°27' E 139°38'0 0.0
2014-Sep-06 10:33N 35°27' E 139°38'0 0.0
2014-Sep-06 09:33N 35°27' E 139°38'0 0.0
2014-Sep-06 08:33N 35°27' E 139°38'0 0.0
2014-Sep-06 07:33N 35°27' E 139°38'0 0.0
2014-Sep-06 06:33N 35°27' E 139°38'1 1.5
2014-Sep-06 05:34N 35°28' E 139°40'0 0.1
2014-Sep-06 04:34N 35°28' E 139°40'4 3.5
2014-Sep-06 03:34N 35°25' E 139°43'3 3.2
2014-Sep-06 02:33N 35°27' E 139°40'2 2.0
2014-Sep-06 01:33N 35°27' E 139°42'0 0.0
2014-Sep-06 00:33N 35°27' E 139°42'1 0.8
2014-Sep-05 23:33N 35°28' E 139°42'3 3.1
2014-Sep-05 22:33N 35°27' E 139°45'6 5.6
2014-Sep-05 21:33N 35°27' E 139°38'0 0.0
2014-Sep-05 20:33N 35°27' E 139°38'0 0.0
2014-Sep-05 19:33N 35°27' E 139°38'0 0.0
2014-Sep-05 18:33N 35°27' E 139°38'0 0.0
2014-Sep-05 17:33N 35°27' E 139°38'0 0.0
2014-Sep-05 16:33N 35°27' E 139°38'0 0.0
2014-Sep-05 15:33N 35°27' E 139°38'0 0.0
2014-Sep-05 14:33N 35°27' E 139°38'0 0.0
2014-Sep-05 13:33N 35°27' E 139°38'0 0.0
2014-Sep-05 12:33N 35°27' E 139°38'0 0.0
2014-Sep-05 11:33N 35°27' E 139°38'0 0.0
2014-Sep-05 10:33N 35°27' E 139°38'0 0.0
2014-Sep-05 09:33N 35°27' E 139°38'0 0.0
2014-Sep-05 08:33N 35°27' E 139°38'0 0.0
2014-Sep-05 07:33N 35°27' E 139°38'0 0.0
2014-Sep-05 06:33N 35°27' E 139°38'0 0.0
2014-Sep-05 05:33N 35°27' E 139°38'0 0.0
2014-Sep-05 04:33N 35°27' E 139°38'0 0.0
2014-Sep-05 03:33N 35°27' E 139°38'0 0.0
2014-Sep-05 02:33N 35°27' E 139°38'0 0.0
2014-Sep-05 01:33N 35°27' E 139°38'  
Track history (hours):
 
Tides and Currents Weather Stations Pressure Air Temp Water Temp Dewpoint Dewpoint Depression Visibility Wind Speed Wind Dir Waves Ship Positions

Kyoto Maru

Last reported at 2014-Sep-15 01:33 UTC. Time now 2014-Sep-15 02:02 UTC.
Position N 35°27' E 139°38'.

Length 34 m; draft 3.8 m.

Type: Tug. MMSI: 431002219.

Date/timePositionNaut miles runAvg speedWind from/ knotsBaromVisibWave heightAir tempDewpointWater temp
2014-Sep-15 01:33N 35°27' E 139°38'0 0.0
2014-Sep-15 00:33N 35°27' E 139°38'0 0.0
2014-Sep-14 23:33N 35°27' E 139°38'0 0.0
2014-Sep-14 22:33N 35°27' E 139°38'0 0.0
2014-Sep-14 21:33N 35°27' E 139°38'0 0.0
2014-Sep-14 20:33N 35°27' E 139°38'0 0.0
2014-Sep-14 19:33N 35°27' E 139°38'0 0.0
2014-Sep-14 18:33N 35°27' E 139°38'0 0.0
2014-Sep-14 17:33N 35°27' E 139°38'0 0.0
2014-Sep-14 16:33N 35°27' E 139°38'0 0.0
2014-Sep-14 15:33N 35°27' E 139°38'0 0.0
2014-Sep-14 14:33N 35°27' E 139°38'0 0.0
2014-Sep-14 13:33N 35°27' E 139°38'0 0.0
2014-Sep-14 12:33N 35°27' E 139°38'0 0.0
2014-Sep-14 11:33N 35°27' E 139°38'0 0.0
2014-Sep-14 10:33N 35°27' E 139°38'0 0.0
2014-Sep-14 09:33N 35°27' E 139°38'0 0.0
2014-Sep-14 08:33N 35°27' E 139°38'0 0.0
2014-Sep-14 07:33N 35°27' E 139°38'0 0.0
2014-Sep-14 06:33N 35°27' E 139°38'0 0.0
2014-Sep-14 05:33N 35°27' E 139°38'0 0.0
2014-Sep-14 04:33N 35°27' E 139°38'0 0.0
2014-Sep-14 03:33N 35°27' E 139°38'0 0.0
2014-Sep-14 02:33N 35°27' E 139°38'0 0.0
2014-Sep-14 01:33N 35°27' E 139°38'4 1.1
2014-Sep-13 21:33N 35°27' E 139°44'2 1.6
2014-Sep-13 20:34N 35°28' E 139°42'0 0.1
2014-Sep-13 19:33N 35°28' E 139°42'0 0.0
2014-Sep-13 18:33N 35°28' E 139°42'0 0.0
2014-Sep-13 17:33N 35°28' E 139°42'0 0.3
2014-Sep-13 16:34N 35°27' E 139°42'2 1.7
2014-Sep-13 15:33N 35°26' E 139°41'1 1.2
2014-Sep-13 14:33N 35°28' E 139°40'0 0.0
2014-Sep-13 13:33N 35°28' E 139°40'0 0.0
2014-Sep-13 12:33N 35°28' E 139°40'0 0.3
2014-Sep-13 11:34N 35°27' E 139°41'4 3.7
2014-Sep-13 10:33N 35°30' E 139°44'1 1.1
2014-Sep-13 09:34N 35°29' E 139°43'2 1.9
2014-Sep-13 08:33N 35°27' E 139°42'1 1.0
2014-Sep-13 07:34N 35°27' E 139°41'2 1.5
2014-Sep-13 06:33N 35°27' E 139°39'0 0.0
2014-Sep-13 05:33N 35°27' E 139°39'0 0.0
2014-Sep-13 04:33N 35°27' E 139°39'0 0.0
2014-Sep-13 03:33N 35°27' E 139°39'0 0.0
2014-Sep-13 02:33N 35°27' E 139°39'0 0.0
2014-Sep-13 01:33N 35°27' E 139°39'0 0.0
2014-Sep-13 00:33N 35°27' E 139°39'0 0.0
2014-Sep-12 23:33N 35°27' E 139°39'0 0.0
2014-Sep-12 22:33N 35°27' E 139°39'1 0.8
2014-Sep-12 21:34N 35°28' E 139°39'0 0.2
2014-Sep-12 20:33N 35°27' E 139°38'0 0.0
2014-Sep-12 19:33N 35°27' E 139°38'0 0.0
2014-Sep-12 18:33N 35°27' E 139°38'0 0.0
2014-Sep-12 17:33N 35°27' E 139°38'0 0.0
2014-Sep-12 16:33N 35°27' E 139°38'0 0.0
2014-Sep-12 15:33N 35°27' E 139°38'0 0.0
2014-Sep-12 14:33N 35°27' E 139°38'0 0.0
2014-Sep-12 13:33N 35°27' E 139°38'0 0.0
2014-Sep-12 12:33N 35°27' E 139°38'0 0.0
2014-Sep-12 11:33N 35°27' E 139°38'0 0.0
2014-Sep-12 10:33N 35°27' E 139°38'0 0.0
2014-Sep-12 09:33N 35°27' E 139°38'0 0.0
2014-Sep-12 08:33N 35°27' E 139°38'0 0.0
2014-Sep-12 07:33N 35°27' E 139°38'2 1.6
2014-Sep-12 06:33N 35°28' E 139°40'0 0.0
2014-Sep-12 05:33N 35°28' E 139°40'0 0.0
2014-Sep-12 04:33N 35°28' E 139°40'0 0.0
2014-Sep-12 03:33N 35°28' E 139°40'0 0.0
2014-Sep-12 02:33N 35°28' E 139°40'0 0.0
2014-Sep-12 01:33N 35°28' E 139°40'0 0.0
2014-Sep-12 00:33N 35°28' E 139°40'1 1.2
2014-Sep-11 23:33N 35°28' E 139°42'1 1.1
2014-Sep-11 22:33N 35°27' E 139°43'2 2.3
2014-Sep-11 21:33N 35°27' E 139°40'1 1.1
2014-Sep-11 20:33N 35°27' E 139°38'0 0.0
2014-Sep-11 19:33N 35°27' E 139°38'0 0.0
2014-Sep-11 18:33N 35°27' E 139°38'0 0.0
2014-Sep-11 17:33N 35°27' E 139°38'0 0.0
2014-Sep-11 16:33N 35°27' E 139°38'0 0.0
2014-Sep-11 15:33N 35°27' E 139°38'0 0.0
2014-Sep-11 14:33N 35°27' E 139°38'0 0.0
2014-Sep-11 13:33N 35°27' E 139°38'0 0.0
2014-Sep-11 12:33N 35°27' E 139°38'0 0.0
2014-Sep-11 11:33N 35°27' E 139°38'0 0.0
2014-Sep-11 10:33N 35°27' E 139°38'0 0.0
2014-Sep-11 09:33N 35°27' E 139°38'0 0.0
2014-Sep-11 08:33N 35°27' E 139°38'0 0.0
2014-Sep-11 07:33N 35°27' E 139°38'0 0.0
2014-Sep-11 06:33N 35°27' E 139°38'0 0.0
2014-Sep-11 05:33N 35°27' E 139°38'0 0.0
2014-Sep-11 04:33N 35°27' E 139°38'0 0.0
2014-Sep-11 03:33N 35°27' E 139°38'0 0.0
2014-Sep-11 02:33N 35°27' E 139°38'0 0.0
2014-Sep-11 01:33N 35°27' E 139°38'0 0.0
2014-Sep-11 00:33N 35°27' E 139°38'3 2.7
2014-Sep-10 23:33N 35°27' E 139°42'3 2.7
2014-Sep-10 22:33N 35°24' E 139°41'3 2.5
2014-Sep-10 21:33N 35°26' E 139°42'3 2.7
2014-Sep-10 20:33N 35°27' E 139°38'0 0.0
2014-Sep-10 19:33N 35°27' E 139°38'0 0.0
2014-Sep-10 18:33N 35°27' E 139°38'0 0.0
2014-Sep-10 17:33N 35°27' E 139°38'0 0.0
2014-Sep-10 16:33N 35°27' E 139°38'0 0.0
2014-Sep-10 15:33N 35°27' E 139°38'0 0.0
2014-Sep-10 14:33N 35°27' E 139°38'0 0.0
2014-Sep-10 13:33N 35°27' E 139°38'0 0.0
2014-Sep-10 12:33N 35°27' E 139°38'2 1.6
2014-Sep-10 11:34N 35°27' E 139°40'3 3.2
2014-Sep-10 10:33N 35°26' E 139°44'5 4.8
2014-Sep-10 09:33N 35°27' E 139°38'0 0.0
2014-Sep-10 08:33N 35°27' E 139°38'0 0.0
2014-Sep-10 07:33N 35°27' E 139°38'0 0.0
2014-Sep-10 06:33N 35°27' E 139°38'0 0.0
2014-Sep-10 05:33N 35°27' E 139°38'3 3.2
2014-Sep-10 04:34N 35°26' E 139°42'3 3.4
2014-Sep-10 03:33N 35°24' E 139°38'0 0.0
2014-Sep-10 02:33N 35°24' E 139°38'3 2.8
2014-Sep-10 01:33N 35°23' E 139°41'4 4.4
2014-Sep-10 00:33N 35°27' E 139°40'2 1.6
2014-Sep-09 23:33N 35°27' E 139°38'0 0.0
2014-Sep-09 22:33N 35°27' E 139°38'0 0.0
2014-Sep-09 21:33N 35°27' E 139°38'0 0.0
2014-Sep-09 20:33N 35°27' E 139°38'0 0.0
2014-Sep-09 19:33N 35°27' E 139°38'0 0.0
2014-Sep-09 18:33N 35°27' E 139°38'0 0.0
2014-Sep-09 17:33N 35°27' E 139°38'0 0.0
2014-Sep-09 16:33N 35°27' E 139°38'0 0.0
2014-Sep-09 15:33N 35°27' E 139°38'0 0.0
2014-Sep-09 14:33N 35°27' E 139°38'0 0.0
2014-Sep-09 13:33N 35°27' E 139°38'0 0.0
2014-Sep-09 12:33N 35°27' E 139°38'0 0.0
2014-Sep-09 11:33N 35°27' E 139°38'0 0.0
2014-Sep-09 10:33N 35°27' E 139°38'0 0.0
2014-Sep-09 09:33N 35°27' E 139°38'0 0.0
2014-Sep-09 08:33N 35°27' E 139°38'4 4.2
2014-Sep-09 07:34N 35°26' E 139°43'2 2.0
2014-Sep-09 06:33N 35°27' E 139°41'1 0.8
2014-Sep-09 05:33N 35°28' E 139°41'0 0.0
2014-Sep-09 04:33N 35°28' E 139°41'0 0.0
2014-Sep-09 03:33N 35°28' E 139°41'0 0.0
2014-Sep-09 02:33N 35°28' E 139°41'0 0.0
2014-Sep-09 01:33N 35°28' E 139°41'1 0.5
2014-Sep-09 00:33N 35°27' E 139°41'2 1.5
2014-Sep-08 23:33N 35°28' E 139°39'1 0.7
2014-Sep-08 22:33N 35°27' E 139°38'0 0.0
2014-Sep-08 21:33N 35°27' E 139°38'0 0.0
2014-Sep-08 20:33N 35°27' E 139°38'0 0.0
2014-Sep-08 19:33N 35°27' E 139°38'0 0.0
2014-Sep-08 18:33N 35°27' E 139°38'0 0.0
2014-Sep-08 17:33N 35°27' E 139°38'0 0.0
2014-Sep-08 16:33N 35°27' E 139°38'0 0.0
2014-Sep-08 15:33N 35°27' E 139°38'0 0.0
2014-Sep-08 14:33N 35°27' E 139°38'0 0.0
2014-Sep-08 13:33N 35°27' E 139°38'0 0.0
2014-Sep-08 12:33N 35°27' E 139°38'0 0.0
2014-Sep-08 11:33N 35°27' E 139°38'0 0.0
2014-Sep-08 10:33N 35°27' E 139°38'0 0.0
2014-Sep-08 09:33N 35°27' E 139°38'0 0.0
2014-Sep-08 08:33N 35°27' E 139°38'0 0.0
2014-Sep-08 07:33N 35°27' E 139°38'3 3.5
2014-Sep-08 06:33N 35°24' E 139°40'3 3.0
2014-Sep-08 05:33N 35°27' E 139°40'0 0.1
2014-Sep-08 04:33N 35°27' E 139°39'0 0.0
2014-Sep-08 03:33N 35°27' E 139°39'0 0.0
2014-Sep-08 02:33N 35°27' E 139°39'4 4.1
2014-Sep-08 01:33N 35°30' E 139°43'3 2.5
2014-Sep-08 00:33N 35°31' E 139°46'3 3.3
2014-Sep-07 23:33N 35°28' E 139°46'1 1.1
2014-Sep-07 22:34N 35°28' E 139°45'2 1.9
2014-Sep-07 21:33N 35°30' E 139°45'6 6.0
2014-Sep-07 20:33N 35°27' E 139°38'0 0.1
2014-Sep-07 19:33N 35°27' E 139°39'0 0.0
2014-Sep-07 18:33N 35°27' E 139°39'0 0.0
2014-Sep-07 17:33N 35°27' E 139°39'0 0.0
2014-Sep-07 16:33N 35°27' E 139°39'0 0.0
2014-Sep-07 15:33N 35°27' E 139°39'0 0.0
2014-Sep-07 14:33N 35°27' E 139°39'0 0.0
2014-Sep-07 13:33N 35°27' E 139°39'0 0.0
2014-Sep-07 12:33N 35°27' E 139°39'0 0.0
2014-Sep-07 11:33N 35°27' E 139°39'0 0.0
2014-Sep-07 10:33N 35°27' E 139°39'0 0.0
2014-Sep-07 09:33N 35°27' E 139°39'0 0.0
2014-Sep-07 08:33N 35°27' E 139°39'0 0.0
2014-Sep-07 07:33N 35°27' E 139°39'0 0.0
2014-Sep-07 06:33N 35°27' E 139°39'0 0.0
2014-Sep-07 05:33N 35°27' E 139°39'0 0.0
2014-Sep-07 04:33N 35°27' E 139°39'0 0.0
2014-Sep-07 03:33N 35°27' E 139°39'0 0.0
2014-Sep-07 02:33N 35°27' E 139°39'0 0.0
2014-Sep-07 01:33N 35°27' E 139°39'0 0.0
2014-Sep-07 00:33N 35°27' E 139°39'2 2.3
2014-Sep-06 23:33N 35°26' E 139°41'1 1.1
2014-Sep-06 22:33N 35°26' E 139°42'3 3.5
2014-Sep-06 21:33N 35°27' E 139°38'0 0.1
2014-Sep-06 20:33N 35°27' E 139°38'0 0.0
2014-Sep-06 19:33N 35°27' E 139°38'0 0.0
2014-Sep-06 18:33N 35°27' E 139°38'0 0.0
2014-Sep-06 17:33N 35°27' E 139°38'0 0.0
2014-Sep-06 16:33N 35°27' E 139°38'0 0.0
2014-Sep-06 15:33N 35°27' E 139°38'0 0.0
2014-Sep-06 14:33N 35°27' E 139°38'0 0.0
2014-Sep-06 13:33N 35°27' E 139°38'0 0.0
2014-Sep-06 12:33N 35°27' E 139°38'0 0.0
2014-Sep-06 11:33N 35°27' E 139°38'0 0.0
2014-Sep-06 10:33N 35°27' E 139°38'0 0.0
2014-Sep-06 09:33N 35°27' E 139°38'0 0.0
2014-Sep-06 08:33N 35°27' E 139°38'0 0.0
2014-Sep-06 07:33N 35°27' E 139°38'0 0.0
2014-Sep-06 06:33N 35°27' E 139°38'1 1.5
2014-Sep-06 05:34N 35°28' E 139°40'0 0.1
2014-Sep-06 04:34N 35°28' E 139°40'4 3.5
2014-Sep-06 03:34N 35°25' E 139°43'3 3.2
2014-Sep-06 02:33N 35°27' E 139°40'2 2.0
2014-Sep-06 01:33N 35°27' E 139°42'0 0.0
2014-Sep-06 00:33N 35°27' E 139°42'1 0.8
2014-Sep-05 23:33N 35°28' E 139°42'3 3.1
2014-Sep-05 22:33N 35°27' E 139°45'6 5.6
2014-Sep-05 21:33N 35°27' E 139°38'0 0.0
2014-Sep-05 20:33N 35°27' E 139°38'0 0.0
2014-Sep-05 19:33N 35°27' E 139°38'0 0.0
2014-Sep-05 18:33N 35°27' E 139°38'0 0.0
2014-Sep-05 17:33N 35°27' E 139°38'0 0.0
2014-Sep-05 16:33N 35°27' E 139°38'0 0.0
2014-Sep-05 15:33N 35°27' E 139°38'0 0.0
2014-Sep-05 14:33N 35°27' E 139°38'0 0.0
2014-Sep-05 13:33N 35°27' E 139°38'0 0.0
2014-Sep-05 12:33N 35°27' E 139°38'0 0.0
2014-Sep-05 11:33N 35°27' E 139°38'0 0.0
2014-Sep-05 10:33N 35°27' E 139°38'0 0.0
2014-Sep-05 09:33N 35°27' E 139°38'0 0.0
2014-Sep-05 08:33N 35°27' E 139°38'0 0.0
2014-Sep-05 07:33N 35°27' E 139°38'0 0.0
2014-Sep-05 06:33N 35°27' E 139°38'0 0.0
2014-Sep-05 05:33N 35°27' E 139°38'0 0.0
2014-Sep-05 04:33N 35°27' E 139°38'0 0.0
2014-Sep-05 03:33N 35°27' E 139°38'0 0.0
2014-Sep-05 02:33N 35°27' E 139°38'0 0.0
2014-Sep-05 01:33N 35°27' E 139°38'  

Dump ship's entire track history